Time;durP1;ratioP1;P1;durP2;ratioP2;P2;SDS_P1;SDS_P2;PMS_P1;PMS_P2;Temp;Humidity;BMP_temperature;BMP_pressure;BME280_temperature;BME280_humidity;BME280_pressure;Samples;Min_cycle;Max_cycle;Signal;HPM_P1;HPM_P2
2022/07/17 00:00:03;;;;;;;23.80;21.67;;;;;;;11.07;nan;99767.59;2074240;28;20199;-75
2022/07/17 00:01:06;;;;;;;22.98;21.15;;;;;;;11.05;nan;99767.88;2073881;28;20663;-75
2022/07/17 00:02:08;;;;;;;23.42;21.40;;;;;;;11.04;nan;99768.97;2073937;28;20204;-75
2022/07/17 00:03:10;;;;;;;23.50;21.42;;;;;;;11.02;nan;99763.88;2074010;28;20206;-75
2022/07/17 00:04:11;;;;;;;22.45;20.35;;;;;;;10.99;nan;99766.34;2073359;28;20204;-75
2022/07/17 00:05:16;;;;;;;23.03;21.03;;;;;;;10.94;nan;99766.38;2073446;28;20268;-75
2022/07/17 00:06:17;;;;;;;23.55;21.38;;;;;;;10.95;nan;99770.66;2073675;28;20255;-75
2022/07/17 00:07:19;;;;;;;23.00;21.03;;;;;;;10.94;nan;99775.16;2074486;28;20188;-75
2022/07/17 00:08:21;;;;;;;23.67;21.42;;;;;;;10.92;nan;99768.53;2073925;28;20193;-75
2022/07/17 00:09:24;;;;;;;22.67;20.77;;;;;;;10.90;nan;99773.34;2073883;28;20686;-75
2022/07/17 00:10:25;;;;;;;23.55;21.35;;;;;;;10.92;nan;99771.19;2073342;28;20208;-75
2022/07/17 00:11:28;;;;;;;22.60;20.63;;;;;;;10.92;nan;99768.53;2073189;28;20199;-75
2022/07/17 00:12:30;;;;;;;22.42;20.52;;;;;;;10.90;nan;99778.69;2073493;28;20189;-75
2022/07/17 00:13:32;;;;;;;23.50;21.50;;;;;;;10.89;nan;99777.91;2073291;28;20200;-75
2022/07/17 00:14:34;;;;;;;23.50;21.23;;;;;;;10.88;nan;99772.84;2081467;28;20208;-75
2022/07/17 00:15:37;;;;;;;23.52;21.38;;;;;;;10.85;nan;99774.19;2073393;28;20200;-75
2022/07/17 00:16:37;;;;;;;23.60;21.38;;;;;;;10.85;nan;99778.72;2065134;28;20251;-75
2022/07/17 00:17:39;;;;;;;23.53;21.27;;;;;;;10.88;nan;99778.19;2065061;28;20236;-75
2022/07/17 00:18:41;;;;;;;23.63;21.42;;;;;;;10.89;nan;99780.56;2073730;28;20181;-78
2022/07/17 00:19:43;;;;;;;22.48;20.48;;;;;;;10.88;nan;99775.50;2073155;28;20260;-78
2022/07/17 00:20:44;;;;;;;22.80;20.48;;;;;;;10.86;nan;99775.81;2073558;28;20188;-78
2022/07/17 00:21:45;;;;;;;23.30;21.13;;;;;;;10.85;nan;99776.84;2072748;28;20223;-75
2022/07/17 00:22:47;;;;;;;22.92;20.80;;;;;;;10.84;nan;99774.47;2073319;28;20184;-75
2022/07/17 00:23:50;;;;;;;23.92;21.77;;;;;;;10.84;nan;99777.94;2073208;28;20200;-75
2022/07/17 00:24:51;;;;;;;23.02;20.85;;;;;;;10.82;nan;99781.97;2073303;28;20215;-74
2022/07/17 00:25:53;;;;;;;22.73;20.60;;;;;;;10.82;nan;99781.97;2074139;28;20243;-75
2022/07/17 00:26:55;;;;;;;22.95;20.85;;;;;;;10.79;nan;99783.31;2072747;28;20291;-75
2022/07/17 00:27:57;;;;;;;23.40;21.20;;;;;;;10.78;nan;99775.59;2073222;28;20282;-75
2022/07/17 00:28:59;;;;;;;22.75;20.85;;;;;;;10.77;nan;99788.13;2073102;28;20211;-75
2022/07/17 00:30:01;;;;;;;23.00;20.98;;;;;;;10.74;nan;99781.47;2073305;28;20276;-75
2022/07/17 00:31:02;;;;;;;22.20;20.38;;;;;;;10.74;nan;99786.81;2074084;28;20220;-75
2022/07/17 00:32:04;;;;;;;23.23;21.10;;;;;;;10.74;nan;99781.47;2073053;28;20209;-75
2022/07/17 00:33:08;;;;;;;23.60;21.52;;;;;;;10.73;nan;99782.56;2064618;28;20600;-75
2022/07/17 00:34:09;;;;;;;22.85;20.75;;;;;;;10.71;nan;99787.38;2073358;28;20263;-75
2022/07/17 00:35:11;;;;;;;23.53;21.27;;;;;;;10.72;nan;99788.19;2073778;28;20193;-75
2022/07/17 00:36:12;;;;;;;23.02;21.17;;;;;;;10.69;nan;99786.88;2072833;28;20279;-75
2022/07/17 00:37:14;;;;;;;23.30;21.40;;;;;;;10.65;nan;99788.50;2073239;28;20271;-75
2022/07/17 00:38:15;;;;;;;25.77;21.48;;;;;;;10.68;nan;99793.25;2073795;28;20219;-75
2022/07/17 00:39:16;;;;;;;22.53;20.60;;;;;;;10.65;nan;99793.81;2073233;28;20247;-75
2022/07/17 00:40:21;;;;;;;23.80;21.70;;;;;;;10.68;nan;99798.59;2064727;28;20255;-75
2022/07/17 00:41:22;;;;;;;24.00;21.63;;;;;;;10.67;nan;99797.00;2073220;28;20193;-75
2022/07/17 00:42:25;;;;;;;22.77;20.75;;;;;;;10.62;nan;99794.41;2073767;28;20614;-75
2022/07/17 00:43:27;;;;;;;24.88;22.58;;;;;;;10.61;nan;99800.81;2075345;28;20192;-75
2022/07/17 00:44:28;;;;;;;23.10;20.98;;;;;;;10.62;nan;99790.94;2075185;28;20735;-75
2022/07/17 00:45:30;;;;;;;24.47;22.07;;;;;;;10.57;nan;99791.75;2075303;28;20600;-77
2022/07/17 00:46:32;;;;;;;22.85;20.85;;;;;;;10.56;nan;99795.50;2075214;28;20199;-78
2022/07/17 00:47:52;;;;;;;23.48;21.38;;;;;;;10.57;nan;99799.75;2075274;28;20196;-77
2022/07/17 00:48:52;;;;;;;23.85;21.60;;;;;;;10.56;nan;99800.81;2074513;28;20200;-75
2022/07/17 00:49:54;;;;;;;24.63;22.33;;;;;;;10.54;nan;99799.53;2066420;28;20197;-75
2022/07/17 00:50:55;;;;;;;22.83;20.92;;;;;;;10.55;nan;99803.78;2074061;28;20184;-75
2022/07/17 00:51:57;;;;;;;23.17;21.15;;;;;;;10.56;nan;99798.16;2074426;28;20801;-77
2022/07/17 00:52:57;;;;;;;22.15;20.25;;;;;;;10.58;nan;99808.56;2074572;28;20216;-75
2022/07/17 00:54:01;;;;;;;22.33;20.43;;;;;;;10.53;nan;99798.72;2075120;28;20196;-75
2022/07/17 00:55:02;;;;;;;22.83;20.73;;;;;;;10.52;nan;99799.81;2074464;28;20606;-75
2022/07/17 00:56:05;;;;;;;27.13;20.57;;;;;;;10.51;nan;99805.38;2074440;28;20196;-75
2022/07/17 00:57:09;;;;;;;22.33;20.35;;;;;;;10.49;nan;99800.34;2082412;28;20466;-75
2022/07/17 00:58:14;;;;;;;23.38;21.00;;;;;;;10.50;nan;99799.25;2075061;28;20187;-75
2022/07/17 00:59:15;;;;;;;22.85;20.98;;;;;;;10.48;nan;99796.88;2074266;28;20244;-75
2022/07/17 01:00:17;;;;;;;22.52;20.67;;;;;;;10.48;nan;99798.75;2066391;28;20296;-77
2022/07/17 01:01:18;;;;;;;22.15;20.25;;;;;;;10.48;nan;99804.09;2074480;28;20200;-74
2022/07/17 01:02:20;;;;;;;22.70;20.73;;;;;;;10.46;nan;99803.56;2074468;28;20196;-75
2022/07/17 01:03:23;;;;;;;22.85;20.73;;;;;;;10.42;nan;99794.50;2065859;28;20208;-75
2022/07/17 01:04:26;;;;;;;23.17;21.13;;;;;;;10.40;nan;99794.78;2066584;28;20193;-75
2022/07/17 01:05:29;;;;;;;22.92;20.77;;;;;;;10.41;nan;99803.59;2066548;28;20297;-75
2022/07/17 01:06:32;;;;;;;22.63;20.63;;;;;;;10.41;nan;99799.03;2074167;28;20224;-74
2022/07/17 01:07:33;;;;;;;22.42;20.42;;;;;;;10.40;nan;99808.13;2074755;28;20246;-75
2022/07/17 01:08:35;;;;;;;22.17;20.30;;;;;;;10.38;nan;99804.16;2066189;28;20255;-75
2022/07/17 01:09:36;;;;;;;22.35;20.13;;;;;;;10.35;nan;99802.84;2074554;28;20204;-75
2022/07/17 01:10:38;;;;;;;22.37;20.40;;;;;;;10.32;nan;99805.25;2074352;28;20200;-74
2022/07/17 01:11:39;;;;;;;21.98;20.17;;;;;;;10.31;nan;99804.44;2065854;28;20304;-74
2022/07/17 01:12:43;;;;;;;22.77;20.53;;;;;;;10.29;nan;99798.59;2074391;28;20189;-75
2022/07/17 01:13:46;;;;;;;22.90;20.88;;;;;;;10.27;nan;99806.09;2075279;28;20188;-74
2022/07/17 01:14:49;;;;;;;23.35;21.15;;;;;;;10.29;nan;99800.47;2074905;28;20702;-74
2022/07/17 01:15:50;;;;;;;22.80;20.88;;;;;;;10.29;nan;99803.94;2074938;28;20223;-74
2022/07/17 01:16:52;;;;;;;23.23;21.10;;;;;;;10.26;nan;99790.38;2074246;28;20721;-74
2022/07/17 01:17:52;;;;;;;22.67;20.48;;;;;;;10.28;nan;99799.69;2074754;28;20215;-74
2022/07/17 01:18:54;;;;;;;22.40;20.43;;;;;;;10.28;nan;99807.69;2074285;28;20197;-74
2022/07/17 01:19:57;;;;;;;23.52;21.42;;;;;;;10.29;nan;99800.47;2074288;28;20615;-74
2022/07/17 01:21:05;;;;;;;22.65;20.65;;;;;;;10.28;nan;99793.53;2074543;28;20189;-74
2022/07/17 01:22:06;;;;;;;22.95;20.92;;;;;;;10.26;nan;99796.50;2075169;28;20181;-74
2022/07/17 01:23:08;;;;;;;22.23;20.37;;;;;;;10.25;nan;99794.06;2075368;28;20234;-74
2022/07/17 01:24:09;;;;;;;23.77;21.42;;;;;;;10.28;nan;99799.69;2074128;28;20299;-74
2022/07/17 01:25:11;;;;;;;22.10;20.30;;;;;;;10.29;nan;99798.59;2066052;28;20197;-74
2022/07/17 01:26:12;;;;;;;22.52;20.48;;;;;;;10.28;nan;99798.88;2074404;28;20196;-73
2022/07/17 01:27:15;;;;;;;23.30;21.10;;;;;;;10.30;nan;99797.53;2082351;28;20204;-74
2022/07/17 01:28:17;;;;;;;22.58;20.73;;;;;;;10.29;nan;99797.81;2074868;28;20208;-74
2022/07/17 01:29:18;;;;;;;22.52;20.42;;;;;;;10.26;nan;99798.38;2074897;28;20287;-74
2022/07/17 01:30:20;;;;;;;22.40;20.40;;;;;;;10.27;nan;99803.41;2074362;28;20259;-74
2022/07/17 01:31:20;;;;;;;23.10;20.83;;;;;;;10.26;nan;99796.50;2074500;28;20188;-73
2022/07/17 01:32:32;;;;;;;23.00;20.90;;;;;;;10.26;nan;99801.03;2074394;28;20224;-73
2022/07/17 01:33:32;;;;;;;23.77;21.52;;;;;;;10.27;nan;99805.28;2074590;28;20622;-73
2022/07/17 01:34:36;;;;;;;23.10;20.77;;;;;;;10.29;nan;99803.13;2074183;28;20657;-73
2022/07/17 01:35:37;;;;;;;23.52;21.27;;;;;;;10.28;nan;99810.34;2066774;28;20630;-73
2022/07/17 01:36:41;;;;;;;23.17;20.90;;;;;;;10.30;nan;99800.19;2073937;28;20294;-73
2022/07/17 01:37:42;;;;;;;22.63;20.40;;;;;;;10.30;nan;99808.19;2074811;28;20601;-73
2022/07/17 01:38:45;;;;;;;23.75;21.60;;;;;;;10.29;nan;99805.81;2082390;28;20279;-73
2022/07/17 01:39:52;;;;;;;23.15;20.80;;;;;;;10.31;nan;99804.44;2082463;28;20685;-73
2022/07/17 01:40:54;;;;;;;22.52;20.42;;;;;;;10.29;nan;99800.47;2074808;28;20689;-73
2022/07/17 01:41:54;;;;;;;24.90;20.90;;;;;;;10.30;nan;99805.53;2074161;28;20298;-73
2022/07/17 01:42:56;;;;;;;23.33;21.33;;;;;;;10.31;nan;99795.66;2074512;28;20192;-73
2022/07/17 01:43:58;;;;;;;24.65;22.25;;;;;;;10.33;nan;99801.50;2082291;28;20614;-73
2022/07/17 01:45:01;;;;;;;24.38;21.98;;;;;;;10.35;nan;99804.72;2082811;28;20246;-73
2022/07/17 01:46:02;;;;;;;24.65;22.23;;;;;;;10.32;nan;99798.03;2082162;28;20192;-73
2022/07/17 01:47:04;;;;;;;24.13;21.95;;;;;;;10.31;nan;99795.66;2074123;28;20200;-73
2022/07/17 01:48:05;;;;;;;24.40;22.10;;;;;;;10.29;nan;99795.13;2065867;28;20304;-74
2022/07/17 01:49:07;;;;;;;24.77;22.37;;;;;;;10.30;nan;99802.06;2074085;28;20678;-73
2022/07/17 01:50:08;;;;;;;23.42;21.27;;;;;;;10.28;nan;99796.22;2075021;28;20208;-73
2022/07/17 01:51:10;;;;;;;24.73;22.40;;;;;;;10.29;nan;99795.13;2073655;28;20528;-74
2022/07/17 01:52:14;;;;;;;25.85;23.20;;;;;;;10.27;nan;99794.63;2074083;28;20199;-73
2022/07/17 01:53:15;;;;;;;24.17;21.75;;;;;;;10.27;nan;99802.63;2066629;28;20200;-73
2022/07/17 01:54:16;;;;;;;26.73;23.13;;;;;;;10.24;nan;99798.63;2065802;28;20201;-73
2022/07/17 01:55:18;;;;;;;25.20;22.87;;;;;;;10.24;nan;99798.63;2074464;28;20193;-73
2022/07/17 01:56:19;;;;;;;25.73;23.25;;;;;;;10.22;nan;99799.94;2074606;28;20247;-73
2022/07/17 01:57:21;;;;;;;24.77;22.47;;;;;;;10.24;nan;99797.81;2074896;28;20188;-73
2022/07/17 01:58:22;;;;;;;24.10;21.98;;;;;;;10.18;nan;99791.72;2074662;28;20219;-73
2022/07/17 01:59:26;;;;;;;24.03;21.73;;;;;;;10.16;nan;99797.31;2073924;28;20223;-73
2022/07/17 02:00:28;;;;;;;25.20;22.80;;;;;;;10.14;nan;99802.09;2074870;28;20196;-73
2022/07/17 02:01:30;;;;;;;26.00;23.15;;;;;;;10.13;nan;99794.38;2074202;28;20208;-73
2022/07/17 02:02:34;;;;;;;24.90;21.85;;;;;;;10.10;nan;99798.41;2065936;28;20266;-73
2022/07/17 02:03:36;;;;;;;24.67;22.08;;;;;;;10.11;nan;99804.53;2066291;28;20235;-73
2022/07/17 02:04:41;;;;;;;24.58;22.48;;;;;;;10.13;nan;99803.19;2065838;28;20256;-73
2022/07/17 02:05:43;;;;;;;25.23;22.65;;;;;;;10.11;nan;99797.34;2074156;28;20191;-73
2022/07/17 02:06:45;;;;;;;24.73;22.23;;;;;;;10.14;nan;99807.44;2073578;28;20220;-73
2022/07/17 02:07:48;;;;;;;24.65;22.45;;;;;;;10.11;nan;99796.53;2074100;28;20184;-73
2022/07/17 02:08:50;;;;;;;25.65;22.83;;;;;;;10.10;nan;99802.94;2074797;28;20200;-73
2022/07/17 02:09:52;;;;;;;25.95;23.27;;;;;;;10.12;nan;99803.47;2082020;28;20207;-73
2022/07/17 02:10:54;;;;;;;24.77;22.27;;;;;;;10.10;nan;99801.06;2073904;28;20196;-73
2022/07/17 02:11:55;;;;;;;24.90;22.53;;;;;;;10.07;nan;99796.28;2065779;28;20221;-73
2022/07/17 02:12:57;;;;;;;25.40;23.02;;;;;;;10.05;nan;99801.09;2073941;28;20275;-73
2022/07/17 02:14:00;;;;;;;26.38;23.38;;;;;;;10.07;nan;99806.94;2074666;28;20181;-73
2022/07/17 02:15:02;;;;;;;26.40;23.38;;;;;;;10.07;nan;99803.47;2074112;28;20271;-73
2022/07/17 02:16:04;;;;;;;26.02;23.60;;;;;;;10.07;nan;99801.59;2074125;28;20694;-73
2022/07/17 02:17:05;;;;;;;25.33;23.02;;;;;;;10.03;nan;99803.22;2073732;28;20216;-73
2022/07/17 02:18:06;;;;;;;26.63;23.87;;;;;;;10.06;nan;99804.53;2074132;28;20215;-73
2022/07/17 02:19:07;;;;;;;26.25;23.77;;;;;;;10.04;nan;99804.81;2074569;28;20852;-73
2022/07/17 02:20:11;;;;;;;25.67;23.27;;;;;;;10.03;nan;99805.09;2073870;28;20597;-73
2022/07/17 02:21:12;;;;;;;25.27;22.70;;;;;;;10.03;nan;99802.44;2073752;28;20239;-73
2022/07/17 02:22:14;;;;;;;26.13;23.50;;;;;;;10.03;nan;99803.22;2073920;28;20200;-73
2022/07/17 02:23:16;;;;;;;27.02;24.25;;;;;;;10.03;nan;99797.09;2073893;28;20224;-73
2022/07/17 02:24:18;;;;;;;27.50;24.60;;;;;;;9.99;nan;99801.38;2074846;28;20188;-73
2022/07/17 02:25:19;;;;;;;26.52;23.88;;;;;;;9.98;nan;99802.44;2074426;28;20665;-73
2022/07/17 02:26:20;;;;;;;27.75;24.55;;;;;;;10.00;nan;99805.66;2073950;28;20632;-73
2022/07/17 02:27:22;;;;;;;26.10;23.50;;;;;;;9.96;nan;99802.72;2073823;28;20192;-73
2022/07/17 02:28:23;;;;;;;26.00;23.30;;;;;;;10.06;nan;99805.34;2073716;28;20199;-73
2022/07/17 02:29:27;;;;;;;26.07;23.27;;;;;;;10.05;nan;99803.75;2074852;28;20185;-73
2022/07/17 02:30:28;;;;;;;26.65;23.95;;;;;;;10.01;nan;99805.38;2073728;28;20675;-73
2022/07/17 02:31:29;;;;;;;26.80;23.20;;;;;;;9.98;nan;99800.56;2074241;28;20193;-73
2022/07/17 02:32:30;;;;;;;27.35;24.67;;;;;;;9.96;nan;99802.72;2074347;28;20180;-73
2022/07/17 02:33:33;;;;;;;27.60;24.77;;;;;;;9.94;nan;99802.22;2074398;28;20195;-72
2022/07/17 02:34:34;;;;;;;31.15;24.80;;;;;;;10.00;nan;99801.13;2074488;28;20270;-72
2022/07/17 02:35:36;;;;;;;27.53;24.67;;;;;;;10.01;nan;99804.59;2073823;28;20247;-73
2022/07/17 02:36:39;;;;;;;27.40;24.50;;;;;;;10.01;nan;99799.25;2074377;28;20247;-73
2022/07/17 02:37:45;;;;;;;26.77;24.08;;;;;;;10.00;nan;99798.47;2073927;28;20249;-73
2022/07/17 02:38:47;;;;;;;26.65;23.92;;;;;;;9.97;nan;99798.19;2073690;28;20720;-72
2022/07/17 02:39:55;;;;;;;29.85;24.65;;;;;;;9.94;nan;99794.22;2073789;28;20200;-72
2022/07/17 02:40:58;;;;;;;30.77;24.67;;;;;;;10.02;nan;99800.84;2081316;28;20544;-72
2022/07/17 02:41:59;;;;;;;27.38;24.48;;;;;;;9.99;nan;99796.88;2074710;28;20195;-72
2022/07/17 02:43:01;;;;;;;26.42;23.65;;;;;;;9.96;nan;99802.72;2074421;28;20204;-72
2022/07/17 02:44:05;;;;;;;26.52;23.58;;;;;;;9.97;nan;99798.97;2074528;28;20627;-72
2022/07/17 02:45:09;;;;;;;27.58;24.70;;;;;;;9.97;nan;99803.53;2074548;28;20200;-72
2022/07/17 02:46:13;;;;;;;29.83;24.85;;;;;;;9.94;nan;99802.22;2081796;28;20218;-72
2022/07/17 02:47:14;;;;;;;27.27;24.40;;;;;;;9.93;nan;99803.28;2074506;28;20663;-72
2022/07/17 02:48:19;;;;;;;29.47;25.00;;;;;;;9.92;nan;99807.03;2073742;28;20576;-75
2022/07/17 02:49:19;;;;;;;27.98;25.15;;;;;;;9.92;nan;99807.03;2074135;28;20295;-73
2022/07/17 02:50:21;;;;;;;26.83;24.10;;;;;;;9.90;nan;99803.81;2074939;28;20192;-73
2022/07/17 02:51:22;;;;;;;26.67;23.85;;;;;;;9.87;nan;99799.03;2073926;28;20244;-73
2022/07/17 02:52:24;;;;;;;31.37;25.53;;;;;;;9.91;nan;99808.09;2074552;28;20195;-73
2022/07/17 02:53:25;;;;;;;27.83;24.83;;;;;;;9.88;nan;99803.28;2074350;28;20223;-74
2022/07/17 02:54:28;;;;;;;25.97;23.23;;;;;;;9.90;nan;99801.97;2074576;28;20196;-72
2022/07/17 02:55:31;;;;;;;26.88;24.23;;;;;;;9.90;nan;99803.81;2074504;28;20286;-73
2022/07/17 02:56:33;;;;;;;27.58;24.65;;;;;;;9.91;nan;99810.75;2074216;28;20188;-72
2022/07/17 02:57:33;;;;;;;27.55;24.35;;;;;;;9.87;nan;99805.16;2074170;28;20243;-73
2022/07/17 02:58:35;;;;;;;28.47;24.70;;;;;;;9.87;nan;99807.03;2073416;28;20176;-72
2022/07/17 02:59:36;;;;;;;28.23;25.08;;;;;;;9.88;nan;99806.75;2074408;28;20165;-72
2022/07/17 03:00:38;;;;;;;27.52;24.58;;;;;;;9.88;nan;99808.63;2074850;28;20192;-72
2022/07/17 03:01:40;;;;;;;28.23;24.55;;;;;;;9.93;nan;99808.63;2073526;28;20211;-73
2022/07/17 03:02:41;;;;;;;29.63;23.95;;;;;;;9.95;nan;99805.66;2074110;28;20224;-75
2022/07/17 03:03:42;;;;;;;32.10;24.20;;;;;;;9.92;nan;99804.34;2081926;28;20191;-75
2022/07/17 03:04:44;;;;;;;29.47;24.77;;;;;;;9.90;nan;99809.97;2074235;28;20191;-74
2022/07/17 03:05:44;;;;;;;28.17;24.30;;;;;;;9.91;nan;99806.22;2075039;28;20247;-74
2022/07/17 03:06:46;;;;;;;27.80;24.83;;;;;;;9.94;nan;99820.88;2072208;28;20220;-72
2022/07/17 03:07:47;;;;;;;27.52;24.80;;;;;;;9.92;nan;99807.03;2074701;28;20301;-72
2022/07/17 03:08:50;;;;;;;28.00;25.10;;;;;;;9.90;nan;99809.97;2073474;28;20629;-72
2022/07/17 03:09:52;;;;;;;27.02;24.05;;;;;;;9.89;nan;99812.88;2073529;28;20267;-74
2022/07/17 03:10:54;;;;;;;28.73;24.20;;;;;;;9.85;nan;99809.97;2074760;28;20180;-74
2022/07/17 03:11:55;;;;;;;27.55;24.48;;;;;;;9.89;nan;99819.00;2074363;28;20197;-74
2022/07/17 03:12:59;;;;;;;27.87;24.87;;;;;;;9.91;nan;99816.88;2074309;28;20276;-74
2022/07/17 03:14:00;;;;;;;27.13;24.13;;;;;;;9.88;nan;99813.94;2074067;28;20208;-72
2022/07/17 03:15:02;;;;;;;27.80;24.50;;;;;;;9.89;nan;99818.22;2073383;28;20200;-71
2022/07/17 03:16:04;;;;;;;27.48;24.65;;;;;;;9.91;nan;99816.09;2065363;28;20584;-72
2022/07/17 03:17:06;;;;;;;27.98;24.05;;;;;;;9.89;nan;99818.22;2073444;28;20212;-72
2022/07/17 03:18:06;;;;;;;28.70;24.88;;;;;;;9.89;nan;99820.88;2074197;28;20188;-72
2022/07/17 03:19:08;;;;;;;32.73;25.97;;;;;;;9.89;nan;99819.00;2073435;28;20748;-72
2022/07/17 03:20:13;;;;;;;32.47;25.13;;;;;;;9.92;nan;99815.03;2065373;28;20196;-72
2022/07/17 03:21:14;;;;;;;31.33;26.27;;;;;;;9.93;nan;99818.47;2073422;28;20282;-75
2022/07/17 03:22:16;;;;;;;32.22;25.67;;;;;;;9.94;nan;99825.41;2074255;28;20176;-74
2022/07/17 03:23:18;;;;;;;36.22;25.90;;;;;;;9.93;nan;99824.59;2074283;28;20658;-74
2022/07/17 03:24:19;;;;;;;31.48;27.13;;;;;;;9.89;nan;99818.22;2073310;28;20200;-74
2022/07/17 03:25:22;;;;;;;33.30;25.87;;;;;;;9.89;nan;99815.53;2073478;28;20192;-73
2022/07/17 03:26:23;;;;;;;38.28;27.10;;;;;;;9.92;nan;99825.69;2074349;28;20219;-73
2022/07/17 03:27:24;;;;;;;30.10;26.23;;;;;;;9.94;nan;99830.72;2074121;28;20662;-73
2022/07/17 03:28:25;;;;;;;32.20;26.42;;;;;;;9.96;nan;99826.72;2073179;28;20240;-74
2022/07/17 03:29:27;;;;;;;30.03;26.40;;;;;;;9.96;nan;99825.91;2073466;28;20195;-74
2022/07/17 03:30:29;;;;;;;33.08;26.08;;;;;;;9.97;nan;99827.50;2073314;28;20286;-74
2022/07/17 03:31:30;;;;;;;28.90;25.77;;;;;;;9.94;nan;99831.53;2073483;28;20219;-74
2022/07/17 03:32:31;;;;;;;30.23;25.88;;;;;;;9.90;nan;99827.81;2073546;28;20207;-74
2022/07/17 03:33:33;;;;;;;32.47;26.03;;;;;;;9.97;nan;99838.97;2073784;28;20187;-73
2022/07/17 03:34:34;;;;;;;28.33;25.48;;;;;;;9.95;nan;99837.66;2073999;28;20188;-74
2022/07/17 03:35:36;;;;;;;37.58;26.45;;;;;;;9.94;nan;99838.72;2073325;28;20593;-74
2022/07/17 03:36:40;;;;;;;32.55;26.38;;;;;;;9.97;nan;99836.31;2065232;28;20620;-74
2022/07/17 03:37:43;;;;;;;31.92;26.50;;;;;;;9.96;nan;99831.25;2065594;28;20304;-74
2022/07/17 03:38:44;;;;;;;29.63;25.90;;;;;;;9.94;nan;99831.53;2073526;28;20184;-74
2022/07/17 03:39:45;;;;;;;28.97;26.07;;;;;;;9.96;nan;99836.59;2074030;28;20185;-74
2022/07/17 03:40:47;;;;;;;32.17;26.13;;;;;;;9.97;nan;99835.50;2073535;28;20200;-74
2022/07/17 03:41:51;;;;;;;29.05;25.85;;;;;;;9.95;nan;99843.00;2073728;28;20637;-74
2022/07/17 03:42:53;;;;;;;30.70;26.45;;;;;;;9.95;nan;99843.78;2074039;28;20196;-74
2022/07/17 03:43:59;;;;;;;29.42;25.67;;;;;;;9.95;nan;99843.78;2073645;28;20673;-74
2022/07/17 03:45:02;;;;;;;29.42;26.42;;;;;;;10.00;nan;99846.44;2073649;28;20522;-74
2022/07/17 03:46:04;;;;;;;31.50;26.55;;;;;;;10.01;nan;99847.25;2073501;28;20201;-74
2022/07/17 03:47:05;;;;;;;30.67;26.83;;;;;;;10.03;nan;99839.75;2073451;28;20192;-74
2022/07/17 03:48:07;;;;;;;28.80;25.70;;;;;;;10.02;nan;99844.28;2073993;28;20220;-74
2022/07/17 03:49:10;;;;;;;28.55;25.38;;;;;;;10.02;nan;99838.97;2074294;28;20192;-75
2022/07/17 03:50:11;;;;;;;27.05;24.30;;;;;;;9.99;nan;99852.03;2073967;28;20188;-75
2022/07/17 03:51:15;;;;;;;28.10;25.20;;;;;;;10.03;nan;99850.44;2073598;28;20686;-75
2022/07/17 03:52:17;;;;;;;28.27;25.35;;;;;;;10.01;nan;99848.03;2073441;28;20220;-74
2022/07/17 03:53:18;;;;;;;30.85;25.70;;;;;;;10.00;nan;99848.31;2073440;28;20222;-75
2022/07/17 03:54:20;;;;;;;28.37;25.40;;;;;;;9.99;nan;99847.53;2074054;28;20215;-73
2022/07/17 03:55:21;;;;;;;28.15;25.38;;;;;;;9.99;nan;99847.53;2074205;28;20250;-75
2022/07/17 03:56:24;;;;;;;27.30;24.60;;;;;;;10.02;nan;99838.97;2074012;28;20246;-75
2022/07/17 03:57:26;;;;;;;28.02;25.05;;;;;;;10.00;nan;99854.44;2074191;28;20216;-74
2022/07/17 03:58:28;;;;;;;27.17;24.23;;;;;;;10.00;nan;99853.66;2073747;28;20247;-75
2022/07/17 03:59:29;;;;;;;26.63;24.13;;;;;;;10.01;nan;99848.03;2073409;28;20287;-74
2022/07/17 04:00:31;;;;;;;26.97;24.47;;;;;;;9.99;nan;99844.84;2073533;28;20196;-75
2022/07/17 04:01:31;;;;;;;26.98;24.63;;;;;;;10.02;nan;99852.28;2073219;28;20262;-75
2022/07/17 04:02:37;;;;;;;28.00;25.07;;;;;;;10.03;nan;99853.88;2073658;28;20227;-74
2022/07/17 04:03:37;;;;;;;26.38;24.08;;;;;;;10.02;nan;99854.97;2073744;28;20582;-75
2022/07/17 04:04:39;;;;;;;33.23;24.30;;;;;;;10.06;nan;99858.66;2073535;28;20192;-75
2022/07/17 04:05:41;;;;;;;26.13;23.52;;;;;;;10.07;nan;99859.47;2073434;28;20211;-75
2022/07/17 04:06:43;;;;;;;25.67;23.20;;;;;;;10.07;nan;99856.78;2072893;28;20224;-75
2022/07/17 04:07:44;;;;;;;26.00;23.50;;;;;;;10.09;nan;99860.00;2065416;28;20200;-74
2022/07/17 04:08:46;;;;;;;27.08;24.45;;;;;;;10.06;nan;99856.00;2073325;28;20219;-75
2022/07/17 04:09:46;;;;;;;26.75;23.92;;;;;;;10.08;nan;99853.88;2074422;28;20189;-75
2022/07/17 04:10:48;;;;;;;26.13;23.83;;;;;;;10.05;nan;99859.75;2074063;28;20224;-75
2022/07/17 04:11:50;;;;;;;26.85;24.45;;;;;;;10.05;nan;99854.41;2073931;28;20196;-75
2022/07/17 04:12:52;;;;;;;27.15;24.35;;;;;;;10.08;nan;99853.88;2074247;28;20212;-75
2022/07/17 04:13:52;;;;;;;27.20;24.58;;;;;;;10.09;nan;99860.81;2073208;28;20678;-75
2022/07/17 04:14:54;;;;;;;26.07;23.67;;;;;;;10.09;nan;99860.00;2074401;28;20200;-73
2022/07/17 04:15:59;;;;;;;27.23;23.88;;;;;;;10.08;nan;99853.09;2073190;28;20208;-73
2022/07/17 04:17:01;;;;;;;29.30;24.55;;;;;;;10.12;nan;99860.25;2073472;28;20212;-73
2022/07/17 04:18:02;;;;;;;27.45;24.75;;;;;;;10.13;nan;99866.38;2075765;28;20196;-73
2022/07/17 04:19:04;;;;;;;26.87;24.07;;;;;;;10.19;nan;99867.97;2075600;28;20200;-73
2022/07/17 04:20:06;;;;;;;30.08;23.90;;;;;;;10.24;nan;99867.16;2076251;28;20195;-74
2022/07/17 04:21:09;;;;;;;27.73;24.92;;;;;;;10.23;nan;99862.91;2073918;28;20770;-75
2022/07/17 04:22:09;;;;;;;26.13;23.70;;;;;;;10.27;nan;99871.97;2074826;28;20211;-75
2022/07/17 04:23:12;;;;;;;26.77;24.17;;;;;;;10.27;nan;99866.63;2075678;28;20279;-75
2022/07/17 04:24:13;;;;;;;27.33;24.42;;;;;;;10.29;nan;99875.94;2074657;28;20200;-75
2022/07/17 04:25:17;;;;;;;26.60;24.00;;;;;;;10.34;nan;99869.81;2075127;28;20281;-74
2022/07/17 04:26:19;;;;;;;26.75;23.85;;;;;;;10.35;nan;99871.41;2074702;28;20200;-75
2022/07/17 04:27:25;;;;;;;25.27;22.98;;;;;;;10.38;nan;99876.97;2067270;28;20204;-75
2022/07/17 04:28:26;;;;;;;26.48;24.13;;;;;;;10.41;nan;99878.28;2067191;28;20664;-75
2022/07/17 04:29:29;;;;;;;26.63;23.90;;;;;;;10.43;nan;99878.81;2066552;28;20562;-75
2022/07/17 04:30:31;;;;;;;25.35;23.15;;;;;;;10.50;nan;99876.63;2074860;28;20245;-75
2022/07/17 04:31:32;;;;;;;27.27;24.55;;;;;;;10.49;nan;99883.03;2075432;28;20185;-75
2022/07/17 04:32:33;;;;;;;24.95;22.60;;;;;;;10.53;nan;99875.31;2075271;28;20196;-75
2022/07/17 04:33:35;;;;;;;25.13;22.77;;;;;;;10.55;nan;99873.94;2074646;28;20199;-75
2022/07/17 04:34:36;;;;;;;28.55;25.58;;;;;;;10.53;nan;99870.78;2074707;28;20202;-75
2022/07/17 04:35:38;;;;;;;26.95;24.25;;;;;;;10.56;nan;99880.88;2082893;28;20580;-75
2022/07/17 04:36:40;;;;;;;26.33;23.83;;;;;;;10.62;nan;99881.66;2073962;28;20239;-75
2022/07/17 04:37:43;;;;;;;26.23;23.50;;;;;;;10.62;nan;99882.47;2074679;28;20199;-75
2022/07/17 04:38:43;;;;;;;25.70;23.40;;;;;;;10.62;nan;99879.78;2075313;28;20215;-74
2022/07/17 04:39:47;;;;;;;26.97;24.07;;;;;;;10.64;nan;99887.50;2074564;28;20706;-75
2022/07/17 04:40:50;;;;;;;25.23;23.08;;;;;;;10.68;nan;99876.00;2074937;28;20185;-75
2022/07/17 04:41:52;;;;;;;26.20;23.48;;;;;;;10.71;nan;99880.78;2075442;28;20211;-75
2022/07/17 04:42:54;;;;;;;26.02;23.52;;;;;;;10.70;nan;99881.88;2074741;28;20212;-75
2022/07/17 04:43:56;;;;;;;26.40;23.67;;;;;;;10.74;nan;99882.91;2066516;28;20224;-75
2022/07/17 04:44:59;;;;;;;27.60;24.48;;;;;;;10.75;nan;99883.69;2074461;28;20243;-75
2022/07/17 04:46:01;;;;;;;26.55;23.92;;;;;;;10.79;nan;99881.28;2074997;28;20207;-75
2022/07/17 04:47:02;;;;;;;27.10;24.40;;;;;;;10.82;nan;99883.41;2074584;28;20191;-75
2022/07/17 04:48:05;;;;;;;25.93;23.50;;;;;;;10.91;nan;99889.75;2075426;28;20212;-75
2022/07/17 04:49:06;;;;;;;25.77;23.27;;;;;;;10.95;nan;99882.78;2075470;28;20188;-75
2022/07/17 04:50:08;;;;;;;27.23;24.60;;;;;;;10.94;nan;99891.84;2075764;28;20204;-75
2022/07/17 04:51:09;;;;;;;27.95;24.95;;;;;;;11.02;nan;99884.03;2074390;28;20246;-75
2022/07/17 04:52:11;;;;;;;26.45;23.77;;;;;;;11.02;nan;99896.59;2075225;28;20193;-75
2022/07/17 04:53:12;;;;;;;26.67;24.00;;;;;;;11.04;nan;99891.81;2075174;28;20217;-75